createdAt,value
2023-03-22T00:18:04.822Z,45.35
2023-03-22T00:28:10.802Z,44.20
2023-03-22T00:38:45.678Z,44.28
2023-03-22T00:48:45.987Z,44.17
2023-03-22T01:09:55.473Z,43.84
2023-03-22T01:30:01.931Z,44.21
2023-03-22T01:40:09.917Z,44.38
2023-03-22T02:00:42.338Z,44.68
2023-03-22T02:10:51.722Z,44.89
2023-03-22T02:20:54.752Z,45.05
2023-03-22T02:31:06.547Z,44.40
2023-03-22T02:41:14.810Z,44.82
2023-03-22T02:51:22.802Z,44.82
2023-03-22T03:01:24.896Z,44.68
2023-03-22T03:12:24.823Z,44.75
2023-03-22T03:32:21.798Z,44.79
2023-03-22T03:42:23.161Z,45.16
2023-03-22T03:52:30.872Z,44.66
2023-03-22T04:02:33.926Z,44.48
2023-03-22T04:12:36.861Z,44.31
2023-03-22T04:43:13.737Z,43.89
2023-03-22T04:53:22.600Z,43.68
2023-03-22T05:03:26.481Z,43.51
2023-03-22T05:13:31.886Z,43.78
2023-03-22T05:23:34.311Z,43.76
2023-03-22T05:33:35.664Z,43.84
2023-03-22T06:04:11.924Z,43.93
2023-03-22T06:14:29.592Z,43.88
2023-03-22T06:24:31.193Z,43.87
2023-03-22T06:34:32.470Z,43.94
2023-03-22T06:44:46.870Z,43.92
2023-03-22T06:54:48.438Z,44.01
2023-03-22T07:04:49.753Z,44.40
2023-03-22T07:14:53.843Z,44.43
2023-03-22T07:25:05.366Z,44.44
2023-03-22T07:35:12.834Z,44.45
2023-03-22T07:45:20.862Z,44.75
2023-03-22T07:55:28.874Z,44.68
2023-03-22T08:05:36.832Z,44.70
2023-03-22T08:15:44.861Z,44.75
2023-03-22T08:25:52.885Z,44.75
2023-03-22T08:36:00.909Z,45.03
2023-03-22T08:46:09.001Z,45.12
2023-03-22T08:56:16.834Z,45.51
2023-03-22T09:06:30.900Z,44.97
2023-03-22T11:11:31.946Z,44.33
2023-03-22T14:19:42.963Z,45.68
